sensor_id;sensor_type;location;lat;lon;timestamp;pressure;altitude;pressure_sealevel;temperature;humidity
9538;BME280;4807;48.024;11.726;2024-03-08T00:00:45;94848.53;;;-0.09;97.61
9538;BME280;4807;48.024;11.726;2024-03-08T00:03:55;94845.91;;;-0.18;99.25
9538;BME280;4807;48.024;11.726;2024-03-08T00:07:04;94845.34;;;-0.12;98.75
9538;BME280;4807;48.024;11.726;2024-03-08T00:10:14;94845.22;;;-0.20;98.47
9538;BME280;4807;48.024;11.726;2024-03-08T00:13:24;94845.91;;;-0.18;98.85
9538;BME280;4807;48.024;11.726;2024-03-08T00:16:33;94846.88;;;-0.19;98.63
9538;BME280;4807;48.024;11.726;2024-03-08T00:19:43;94833.34;;;-0.15;97.70
9538;BME280;4807;48.024;11.726;2024-03-08T00:22:52;94832.53;;;-0.15;98.31
9538;BME280;4807;48.024;11.726;2024-03-08T00:26:00;94836.97;;;-0.25;98.54
9538;BME280;4807;48.024;11.726;2024-03-08T00:29:10;94835.31;;;-0.26;98.27
9538;BME280;4807;48.024;11.726;2024-03-08T00:32:20;94829.38;;;-0.28;97.93
9538;BME280;4807;48.024;11.726;2024-03-08T00:35:32;94830.47;;;-0.21;98.17
9538;BME280;4807;48.024;11.726;2024-03-08T00:38:41;94822.09;;;-0.34;98.12
9538;BME280;4807;48.024;11.726;2024-03-08T00:41:49;94819.59;;;-0.36;97.78
9538;BME280;4807;48.024;11.726;2024-03-08T00:44:58;94816.44;;;-0.40;97.61
9538;BME280;4807;48.024;11.726;2024-03-08T00:48:06;94810.25;;;-0.29;97.97
9538;BME280;4807;48.024;11.726;2024-03-08T00:51:16;94812.47;;;-0.24;97.54
9538;BME280;4807;48.024;11.726;2024-03-08T00:54:25;94799.06;;;-0.31;96.82
9538;BME280;4807;48.024;11.726;2024-03-08T00:57:33;94799.50;;;-0.45;97.40
9538;BME280;4807;48.024;11.726;2024-03-08T01:00:42;94797.03;;;-0.47;98.36
9538;BME280;4807;48.024;11.726;2024-03-08T01:03:51;94797.97;;;-0.48;98.21
9538;BME280;4807;48.024;11.726;2024-03-08T01:07:01;94799.78;;;-0.48;98.52
9538;BME280;4807;48.024;11.726;2024-03-08T01:10:10;94785.75;;;-0.38;97.22
9538;BME280;4807;48.024;11.726;2024-03-08T01:13:19;94791.00;;;-0.57;97.97
9538;BME280;4807;48.024;11.726;2024-03-08T01:16:28;94780.50;;;-0.47;97.92
9538;BME280;4807;48.024;11.726;2024-03-08T01:19:36;94782.19;;;-0.65;99.07
9538;BME280;4807;48.024;11.726;2024-03-08T01:22:46;94779.84;;;-0.59;97.93
9538;BME280;4807;48.024;11.726;2024-03-08T01:25:55;94771.44;;;-0.62;98.50
9538;BME280;4807;48.024;11.726;2024-03-08T01:29:04;94766.03;;;-0.80;99.53
9538;BME280;4807;48.024;11.726;2024-03-08T01:32:13;94769.09;;;-0.65;98.42
9538;BME280;4807;48.024;11.726;2024-03-08T01:35:22;94761.78;;;-0.62;98.82
9538;BME280;4807;48.024;11.726;2024-03-08T01:38:32;94744.84;;;-0.48;98.22
9538;BME280;4807;48.024;11.726;2024-03-08T01:41:40;94742.66;;;-0.53;97.73
9538;BME280;4807;48.024;11.726;2024-03-08T01:44:49;94741.16;;;-0.55;97.03
9538;BME280;4807;48.024;11.726;2024-03-08T01:47:58;94738.13;;;-0.51;96.72
9538;BME280;4807;48.024;11.726;2024-03-08T01:51:07;94733.16;;;-0.54;97.07
9538;BME280;4807;48.024;11.726;2024-03-08T01:54:19;94736.75;;;-0.55;97.38
9538;BME280;4807;48.024;11.726;2024-03-08T01:57:28;94738.13;;;-0.70;97.95
9538;BME280;4807;48.024;11.726;2024-03-08T02:00:38;94729.06;;;-0.75;98.91
9538;BME280;4807;48.024;11.726;2024-03-08T02:03:49;94724.66;;;-0.75;99.06
9538;BME280;4807;48.024;11.726;2024-03-08T02:06:58;94723.25;;;-0.79;98.91
9538;BME280;4807;48.024;11.726;2024-03-08T02:10:09;94716.69;;;-0.73;98.80
9538;BME280;4807;48.024;11.726;2024-03-08T02:13:20;94716.53;;;-0.82;99.17
9538;BME280;4807;48.024;11.726;2024-03-08T02:16:28;94718.72;;;-0.77;98.33
9538;BME280;4807;48.024;11.726;2024-03-08T02:19:37;94721.91;;;-0.93;99.37
9538;BME280;4807;48.024;11.726;2024-03-08T02:22:46;94716.66;;;-0.93;99.06
9538;BME280;4807;48.024;11.726;2024-03-08T02:25:56;94713.09;;;-1.01;99.31
9538;BME280;4807;48.024;11.726;2024-03-08T02:29:04;94705.81;;;-0.98;100.00
9538;BME280;4807;48.024;11.726;2024-03-08T02:32:13;94705.53;;;-0.95;99.61
9538;BME280;4807;48.024;11.726;2024-03-08T02:35:21;94705.66;;;-0.96;99.80
9538;BME280;4807;48.024;11.726;2024-03-08T02:38:31;94702.09;;;-0.95;99.61
9538;BME280;4807;48.024;11.726;2024-03-08T02:41:40;94699.91;;;-0.90;98.36
9538;BME280;4807;48.024;11.726;2024-03-08T02:44:49;94694.66;;;-1.00;99.70
9538;BME280;4807;48.024;11.726;2024-03-08T02:47:58;94695.19;;;-0.96;99.24
9538;BME280;4807;48.024;11.726;2024-03-08T02:51:06;94693.44;;;-1.05;100.00
9538;BME280;4807;48.024;11.726;2024-03-08T02:54:16;94699.09;;;-0.81;98.57
9538;BME280;4807;48.024;11.726;2024-03-08T02:57:26;94691.38;;;-0.83;98.49
9538;BME280;4807;48.024;11.726;2024-03-08T03:00:34;94698.25;;;-0.82;99.04
9538;BME280;4807;48.024;11.726;2024-03-08T03:03:42;94695.78;;;-0.83;99.05
9538;BME280;4807;48.024;11.726;2024-03-08T03:06:51;94689.84;;;-0.85;99.35
9538;BME280;4807;48.024;11.726;2024-03-08T03:10:01;94692.59;;;-0.96;99.61
9538;BME280;4807;48.024;11.726;2024-03-08T03:13:10;94692.31;;;-0.93;99.38
9538;BME280;4807;48.024;11.726;2024-03-08T03:16:21;94685.56;;;-0.96;99.59
9538;BME280;4807;48.024;11.726;2024-03-08T03:19:30;94685.31;;;-1.02;99.67
9538;BME280;4807;48.024;11.726;2024-03-08T03:22:38;94678.44;;;-0.94;99.28
9538;BME280;4807;48.024;11.726;2024-03-08T03:25:49;94680.91;;;-0.92;99.50
9538;BME280;4807;48.024;11.726;2024-03-08T03:28:59;94677.19;;;-0.99;99.04
9538;BME280;4807;48.024;11.726;2024-03-08T03:32:10;94679.53;;;-1.06;100.00
9538;BME280;4807;48.024;11.726;2024-03-08T03:35:19;94674.59;;;-0.99;99.65
9538;BME280;4807;48.024;11.726;2024-03-08T03:38:28;94676.78;;;-1.04;100.00
9538;BME280;4807;48.024;11.726;2024-03-08T03:41:38;94676.78;;;-1.04;100.00
9538;BME280;4807;48.024;11.726;2024-03-08T03:44:47;94678.16;;;-1.00;100.00
9538;BME280;4807;48.024;11.726;2024-03-08T03:47:56;94670.75;;;-1.14;100.00
9538;BME280;4807;48.024;11.726;2024-03-08T03:51:07;94672.25;;;-1.02;100.00
9538;BME280;4807;48.024;11.726;2024-03-08T03:54:17;94666.06;;;-1.01;99.83
9538;BME280;4807;48.024;11.726;2024-03-08T03:57:28;94661.94;;;-1.04;100.00
9538;BME280;4807;48.024;11.726;2024-03-08T04:00:36;94670.19;;;-0.99;100.00
9538;BME280;4807;48.024;11.726;2024-03-08T04:03:45;94665.78;;;-1.08;99.89
9538;BME280;4807;48.024;11.726;2024-03-08T04:06:53;94660.81;;;-1.11;100.00
9538;BME280;4807;48.024;11.726;2024-03-08T04:10:01;94661.25;;;-1.16;100.00
9538;BME280;4807;48.024;11.726;2024-03-08T04:13:11;94651.06;;;-1.09;99.72
9538;BME280;4807;48.024;11.726;2024-03-08T04:16:20;94655.59;;;-1.21;100.00
9538;BME280;4807;48.024;11.726;2024-03-08T04:19:28;94655.34;;;-1.18;100.00
9538;BME280;4807;48.024;11.726;2024-03-08T04:22:37;94649.00;;;-1.25;100.00
9538;BME280;4807;48.024;11.726;2024-03-08T04:25:46;94649.56;;;-1.11;100.00
9538;BME280;4807;48.024;11.726;2024-03-08T04:28:56;94657.81;;;-1.16;100.00
9538;BME280;4807;48.024;11.726;2024-03-08T04:32:06;94648.47;;;-1.19;100.00
9538;BME280;4807;48.024;11.726;2024-03-08T04:35:16;94646.66;;;-1.18;100.00
9538;BME280;4807;48.024;11.726;2024-03-08T04:38:24;94645.44;;;-1.14;100.00
9538;BME280;4807;48.024;11.726;2024-03-08T04:41:32;94646.28;;;-1.13;100.00
9538;BME280;4807;48.024;11.726;2024-03-08T04:44:43;94649.28;;;-1.18;100.00
9538;BME280;4807;48.024;11.726;2024-03-08T04:47:51;94643.78;;;-1.25;100.00
9538;BME280;4807;48.024;11.726;2024-03-08T04:51:00;94638.31;;;-1.22;100.00
9538;BME280;4807;48.024;11.726;2024-03-08T04:54:08;94644.34;;;-1.31;100.00
9538;BME280;4807;48.024;11.726;2024-03-08T04:57:16;94650.22;;;-1.29;100.00
9538;BME280;4807;48.024;11.726;2024-03-08T05:00:28;94649.81;;;-1.34;100.00
9538;BME280;4807;48.024;11.726;2024-03-08T05:03:36;94645.84;;;-1.38;100.00
9538;BME280;4807;48.024;11.726;2024-03-08T05:06:45;94647.06;;;-1.42;100.00
9538;BME280;4807;48.024;11.726;2024-03-08T05:09:53;94640.63;;;-1.38;100.00
9538;BME280;4807;48.024;11.726;2024-03-08T05:13:01;94636.91;;;-1.35;100.00
9538;BME280;4807;48.024;11.726;2024-03-08T05:16:11;94645.16;;;-1.21;100.00
9538;BME280;4807;48.024;11.726;2024-03-08T05:19:22;94645.16;;;-1.21;100.00
9538;BME280;4807;48.024;11.726;2024-03-08T05:22:31;94631.00;;;-1.18;100.00
9538;BME280;4807;48.024;11.726;2024-03-08T05:25:39;94628.13;;;-1.15;100.00
9538;BME280;4807;48.024;11.726;2024-03-08T05:28:48;94625.06;;;-1.10;100.00
9538;BME280;4807;48.024;11.726;2024-03-08T05:31:58;94625.50;;;-1.05;100.00
9538;BME280;4807;48.024;11.726;2024-03-08T05:35:07;94625.78;;;-1.08;100.00
9538;BME280;4807;48.024;11.726;2024-03-08T05:38:17;94627.00;;;-0.93;100.00
9538;BME280;4807;48.024;11.726;2024-03-08T05:41:27;94623.41;;;-0.83;99.87
9538;BME280;4807;48.024;11.726;2024-03-08T05:44:35;94623.94;;;-0.79;100.00
9538;BME280;4807;48.024;11.726;2024-03-08T05:47:45;94626.03;;;-0.73;99.77
9538;BME280;4807;48.024;11.726;2024-03-08T05:50:53;94618.97;;;-0.63;99.95
9538;BME280;4807;48.024;11.726;2024-03-08T05:54:02;94621.16;;;-0.58;98.53
9538;BME280;4807;48.024;11.726;2024-03-08T05:57:12;94617.31;;;-0.64;98.97
9538;BME280;4807;48.024;11.726;2024-03-08T06:00:21;94609.56;;;-0.56;99.62
9538;BME280;4807;48.024;11.726;2024-03-08T06:03:32;94620.47;;;-0.51;99.25
9538;BME280;4807;48.024;11.726;2024-03-08T06:06:40;94610.38;;;-0.46;99.74
9538;BME280;4807;48.024;11.726;2024-03-08T06:09:49;94609.31;;;-0.53;98.64
9538;BME280;4807;48.024;11.726;2024-03-08T06:12:57;94610.63;;;-0.39;98.14
9538;BME280;4807;48.024;11.726;2024-03-08T06:16:06;94615.56;;;-0.26;98.31
9538;BME280;4807;48.024;11.726;2024-03-08T06:19:16;94603.53;;;-0.19;97.67
9538;BME280;4807;48.024;11.726;2024-03-08T06:22:25;94618.38;;;-0.10;97.61
9538;BME280;4807;48.024;11.726;2024-03-08T06:25:33;94612.94;;;0.01;97.04
9538;BME280;4807;48.024;11.726;2024-03-08T06:28:42;94618.59;;;0.06;96.48
9538;BME280;4807;48.024;11.726;2024-03-08T06:31:50;94608.59;;;0.19;95.86
9538;BME280;4807;48.024;11.726;2024-03-08T06:35:06;94613.22;;;0.25;95.76
9538;BME280;4807;48.024;11.726;2024-03-08T06:38:14;94609.22;;;0.31;95.03
9538;BME280;4807;48.024;11.726;2024-03-08T06:41:24;94615.19;;;0.41;94.18
9538;BME280;4807;48.024;11.726;2024-03-08T06:44:32;94611.03;;;0.48;94.27
9538;BME280;4807;48.024;11.726;2024-03-08T06:47:42;94612.81;;;0.65;93.73
9538;BME280;4807;48.024;11.726;2024-03-08T06:50:52;94620.94;;;0.72;93.23
9538;BME280;4807;48.024;11.726;2024-03-08T06:54:00;94617.09;;;0.84;92.43
9538;BME280;4807;48.024;11.726;2024-03-08T06:57:15;94612.47;;;0.78;92.10
9538;BME280;4807;48.024;11.726;2024-03-08T07:00:24;94612.91;;;0.91;91.49
9538;BME280;4807;48.024;11.726;2024-03-08T07:03:34;94613.03;;;1.07;91.83
9538;BME280;4807;48.024;11.726;2024-03-08T07:06:44;94605.69;;;1.29;91.99
9538;BME280;4807;48.024;11.726;2024-03-08T07:09:54;94607.84;;;1.33;89.05
9538;BME280;4807;48.024;11.726;2024-03-08T07:13:04;94605.47;;;1.48;89.01
9538;BME280;4807;48.024;11.726;2024-03-08T07:16:12;94606.41;;;1.65;89.46
9538;BME280;4807;48.024;11.726;2024-03-08T07:19:21;94607.47;;;1.80;87.29
9538;BME280;4807;48.024;11.726;2024-03-08T07:22:30;94610.66;;;1.91;86.75
9538;BME280;4807;48.024;11.726;2024-03-08T07:25:39;94606.66;;;2.13;86.79
9538;BME280;4807;48.024;11.726;2024-03-08T07:28:48;94607.59;;;2.46;85.30
9538;BME280;4807;48.024;11.726;2024-03-08T07:31:57;94601.34;;;2.39;83.95
9538;BME280;4807;48.024;11.726;2024-03-08T07:35:18;94599.41;;;2.57;83.26
9538;BME280;4807;48.024;11.726;2024-03-08T07:38:28;94596.19;;;2.88;82.43
9538;BME280;4807;48.024;11.726;2024-03-08T07:41:37;94595.16;;;2.73;81.63
9538;BME280;4807;48.024;11.726;2024-03-08T07:44:47;94594.16;;;2.57;82.21
9538;BME280;4807;48.024;11.726;2024-03-08T07:47:55;94594.00;;;2.51;81.65
9538;BME280;4807;48.024;11.726;2024-03-08T07:51:04;94582.53;;;3.00;81.10
9538;BME280;4807;48.024;11.726;2024-03-08T07:54:14;94588.63;;;3.25;80.06
9538;BME280;4807;48.024;11.726;2024-03-08T07:57:22;94576.94;;;3.28;79.39
9538;BME280;4807;48.024;11.726;2024-03-08T08:00:31;94580.91;;;3.40;79.06
9538;BME280;4807;48.024;11.726;2024-03-08T08:03:39;94574.09;;;3.78;78.54
9538;BME280;4807;48.024;11.726;2024-03-08T08:06:49;94571.88;;;3.90;77.69
9538;BME280;4807;48.024;11.726;2024-03-08T08:09:59;94575.66;;;4.03;75.84
9538;BME280;4807;48.024;11.726;2024-03-08T08:13:07;94576.88;;;4.23;76.50
9538;BME280;4807;48.024;11.726;2024-03-08T08:16:16;94571.31;;;4.18;76.16
9538;BME280;4807;48.024;11.726;2024-03-08T08:19:25;94568.66;;;3.71;78.24
9538;BME280;4807;48.024;11.726;2024-03-08T08:22:34;94568.84;;;3.70;78.29
9538;BME280;4807;48.024;11.726;2024-03-08T08:25:44;94569.81;;;3.69;78.02
9538;BME280;4807;48.024;11.726;2024-03-08T08:28:52;94573.06;;;3.87;77.75
9538;BME280;4807;48.024;11.726;2024-03-08T08:32:02;94569.06;;;3.99;77.09
9538;BME280;4807;48.024;11.726;2024-03-08T08:35:10;94561.31;;;4.06;76.55
9538;BME280;4807;48.024;11.726;2024-03-08T08:38:20;94554.13;;;4.31;76.91
9538;BME280;4807;48.024;11.726;2024-03-08T08:41:30;94551.47;;;3.92;77.18
9538;BME280;4807;48.024;11.726;2024-03-08T08:44:40;94546.53;;;3.97;77.56
9538;BME280;4807;48.024;11.726;2024-03-08T08:47:48;94542.63;;;4.23;77.95
9538;BME280;4807;48.024;11.726;2024-03-08T08:50:57;94543.91;;;4.36;76.08
9538;BME280;4807;48.024;11.726;2024-03-08T08:54:06;94535.28;;;4.42;75.31
9538;BME280;4807;48.024;11.726;2024-03-08T08:57:20;94533.53;;;4.57;77.01
9538;BME280;4807;48.024;11.726;2024-03-08T09:00:28;94533.88;;;4.62;74.88
9538;BME280;4807;48.024;11.726;2024-03-08T09:03:38;94532.84;;;4.63;75.02
9538;BME280;4807;48.024;11.726;2024-03-08T09:06:47;94533.81;;;4.70;76.33
9538;BME280;4807;48.024;11.726;2024-03-08T09:09:56;94526.78;;;4.54;74.76
9538;BME280;4807;48.024;11.726;2024-03-08T09:13:07;94524.44;;;4.68;75.32
9538;BME280;4807;48.024;11.726;2024-03-08T09:16:23;94523.06;;;4.72;74.29
9538;BME280;4807;48.024;11.726;2024-03-08T09:19:32;94520.91;;;4.75;74.96
9538;BME280;4807;48.024;11.726;2024-03-08T09:22:40;94510.22;;;4.91;74.19
9538;BME280;4807;48.024;11.726;2024-03-08T09:25:48;94505.06;;;4.98;74.01
9538;BME280;4807;48.024;11.726;2024-03-08T09:28:58;94503.84;;;4.86;72.93
9538;BME280;4807;48.024;11.726;2024-03-08T09:32:07;94497.41;;;4.66;74.25
9538;BME280;4807;48.024;11.726;2024-03-08T09:35:15;94498.69;;;4.92;75.11
9538;BME280;4807;48.024;11.726;2024-03-08T09:38:24;94500.78;;;5.34;73.35
9538;BME280;4807;48.024;11.726;2024-03-08T09:41:33;94500.59;;;5.36;71.58
9538;BME280;4807;48.024;11.726;2024-03-08T09:44:45;94492.22;;;5.32;71.18
9538;BME280;4807;48.024;11.726;2024-03-08T09:47:55;94493.81;;;5.56;72.31
9538;BME280;4807;48.024;11.726;2024-03-08T09:51:04;94496.34;;;5.64;71.39
9538;BME280;4807;48.024;11.726;2024-03-08T09:54:15;94491.31;;;5.84;70.87
9538;BME280;4807;48.024;11.726;2024-03-08T09:57:31;94493.00;;;6.00;71.31
9538;BME280;4807;48.024;11.726;2024-03-08T10:00:44;94493.19;;;5.98;70.70
9538;BME280;4807;48.024;11.726;2024-03-08T10:03:54;94490.16;;;6.01;69.69
9538;BME280;4807;48.024;11.726;2024-03-08T10:07:08;94487.84;;;5.92;71.21
9538;BME280;4807;48.024;11.726;2024-03-08T10:10:19;94493.38;;;5.97;71.37
9538;BME280;4807;48.024;11.726;2024-03-08T10:13:30;94485.44;;;5.67;70.65
9538;BME280;4807;48.024;11.726;2024-03-08T10:16:45;94481.41;;;5.57;71.07
9538;BME280;4807;48.024;11.726;2024-03-08T10:19:58;94476.06;;;5.94;71.77
9538;BME280;4807;48.024;11.726;2024-03-08T10:23:09;94471.56;;;6.24;69.59
9538;BME280;4807;48.024;11.726;2024-03-08T10:26:22;94462.09;;;6.15;69.69
9538;BME280;4807;48.024;11.726;2024-03-08T10:29:31;94456.97;;;6.49;68.87
9538;BME280;4807;48.024;11.726;2024-03-08T10:32:44;94454.84;;;6.60;70.62
9538;BME280;4807;48.024;11.726;2024-03-08T10:35:54;94450.94;;;6.77;67.57
9538;BME280;4807;48.024;11.726;2024-03-08T10:39:17;94451.16;;;7.03;67.72
9538;BME280;4807;48.024;11.726;2024-03-08T10:42:30;94444.28;;;7.09;67.17
9538;BME280;4807;48.024;11.726;2024-03-08T10:45:48;94448.63;;;7.16;66.03
9538;BME280;4807;48.024;11.726;2024-03-08T10:49:07;94448.97;;;6.85;66.74
9538;BME280;4807;48.024;11.726;2024-03-08T10:52:19;94455.97;;;6.93;66.78
9538;BME280;4807;48.024;11.726;2024-03-08T10:55:33;94450.16;;;6.83;65.82
9538;BME280;4807;48.024;11.726;2024-03-08T10:58:47;94438.56;;;6.84;67.70
9538;BME280;4807;48.024;11.726;2024-03-08T11:01:57;94439.09;;;6.73;66.03
9538;BME280;4807;48.024;11.726;2024-03-08T11:05:31;94438.56;;;6.84;68.57
9538;BME280;4807;48.024;11.726;2024-03-08T11:08:42;94427.09;;;6.98;67.56
9538;BME280;4807;48.024;11.726;2024-03-08T11:11:52;94426.81;;;7.14;66.47
9538;BME280;4807;48.024;11.726;2024-03-08T11:15:24;94415.06;;;7.23;67.37
9538;BME280;4807;48.024;11.726;2024-03-08T11:18:33;94414.84;;;7.18;64.49
9538;BME280;4807;48.024;11.726;2024-03-08T11:21:44;94408.56;;;7.26;65.63
9538;BME280;4807;48.024;11.726;2024-03-08T11:24:58;94409.25;;;7.35;65.57
9538;BME280;4807;48.024;11.726;2024-03-08T11:28:14;94409.53;;;7.18;65.91
9538;BME280;4807;48.024;11.726;2024-03-08T11:31:25;94393.06;;;7.23;66.28
9538;BME280;4807;48.024;11.726;2024-03-08T11:34:36;94398.88;;;7.40;67.09
9538;BME280;4807;48.024;11.726;2024-03-08T11:37:46;94383.44;;;7.50;68.35
9538;BME280;4807;48.024;11.726;2024-03-08T11:40:57;94374.75;;;7.62;65.89
9538;BME280;4807;48.024;11.726;2024-03-08T11:44:06;94385.47;;;7.89;65.37
9538;BME280;4807;48.024;11.726;2024-03-08T11:47:16;94381.97;;;7.82;64.07
9538;BME280;4807;48.024;11.726;2024-03-08T11:50:24;94383.63;;;7.83;64.60
9538;BME280;4807;48.024;11.726;2024-03-08T11:53:35;94378.00;;;7.64;64.87
9538;BME280;4807;48.024;11.726;2024-03-08T11:56:45;94372.91;;;7.63;63.66
9538;BME280;4807;48.024;11.726;2024-03-08T11:59:56;94369.09;;;7.72;63.52
9538;BME280;4807;48.024;11.726;2024-03-08T12:03:07;94364.03;;;7.77;63.50
9538;BME280;4807;48.024;11.726;2024-03-08T12:06:17;94360.41;;;7.98;65.11
9538;BME280;4807;48.024;11.726;2024-03-08T12:09:27;94361.75;;;7.74;63.32
9538;BME280;4807;48.024;11.726;2024-03-08T12:12:35;94360.72;;;7.69;63.86
9538;BME280;4807;48.024;11.726;2024-03-08T12:15:44;94352.16;;;7.66;64.14
9538;BME280;4807;48.024;11.726;2024-03-08T12:18:53;94339.34;;;7.77;63.23
9538;BME280;4807;48.024;11.726;2024-03-08T12:22:09;94343.25;;;7.87;62.74
9538;BME280;4807;48.024;11.726;2024-03-08T12:25:19;94334.94;;;8.03;62.21
9538;BME280;4807;48.024;11.726;2024-03-08T12:28:28;94338.38;;;7.84;62.47
9538;BME280;4807;48.024;11.726;2024-03-08T12:31:38;94336.34;;;7.86;62.12
9538;BME280;4807;48.024;11.726;2024-03-08T12:34:52;94326.34;;;7.88;62.26
9538;BME280;4807;48.024;11.726;2024-03-08T12:38:01;94320.06;;;8.02;62.38
9538;BME280;4807;48.024;11.726;2024-03-08T12:41:12;94312.50;;;7.99;62.28
9538;BME280;4807;48.024;11.726;2024-03-08T12:44:21;94316.38;;;7.97;61.71
9538;BME280;4807;48.024;11.726;2024-03-08T12:47:30;94310.31;;;8.10;61.18
9538;BME280;4807;48.024;11.726;2024-03-08T12:50:40;94301.28;;;8.04;61.20
9538;BME280;4807;48.024;11.726;2024-03-08T12:53:51;94310.94;;;8.25;61.56
9538;BME280;4807;48.024;11.726;2024-03-08T12:57:05;94300.31;;;8.25;59.47
9538;BME280;4807;48.024;11.726;2024-03-08T13:00:15;94299.31;;;8.26;60.46
9538;BME280;4807;48.024;11.726;2024-03-08T13:03:27;94289.09;;;8.16;61.16
9538;BME280;4807;48.024;11.726;2024-03-08T13:06:35;94285.00;;;8.14;61.39
9538;BME280;4807;48.024;11.726;2024-03-08T13:09:43;94283.22;;;8.34;61.06
9538;BME280;4807;48.024;11.726;2024-03-08T13:12:54;94274.84;;;8.43;60.03
9538;BME280;4807;48.024;11.726;2024-03-08T13:16:05;94278.94;;;8.59;59.64
9538;BME280;4807;48.024;11.726;2024-03-08T13:19:15;94280.16;;;8.63;59.44
9538;BME280;4807;48.024;11.726;2024-03-08T13:22:24;94266.69;;;8.71;60.01
9538;BME280;4807;48.024;11.726;2024-03-08T13:25:35;94279.75;;;8.66;58.19
9538;BME280;4807;48.024;11.726;2024-03-08T13:28:47;94272.00;;;8.65;57.72
9538;BME280;4807;48.024;11.726;2024-03-08T13:32:01;94257.28;;;8.62;58.87
9538;BME280;4807;48.024;11.726;2024-03-08T13:35:10;94260.53;;;8.77;59.00
9538;BME280;4807;48.024;11.726;2024-03-08T13:38:20;94248.69;;;8.87;59.30
9538;BME280;4807;48.024;11.726;2024-03-08T13:41:32;94251.56;;;8.92;58.24
9538;BME280;4807;48.024;11.726;2024-03-08T13:44:45;94254.63;;;8.82;58.51
9538;BME280;4807;48.024;11.726;2024-03-08T13:47:54;94235.03;;;8.83;59.12
9538;BME280;4807;48.024;11.726;2024-03-08T13:51:04;94244.44;;;8.72;59.54
9538;BME280;4807;48.024;11.726;2024-03-08T13:54:13;94237.66;;;8.76;59.26
9538;BME280;4807;48.024;11.726;2024-03-08T13:57:23;94234.22;;;8.83;59.56
9538;BME280;4807;48.024;11.726;2024-03-08T14:00:35;94241.34;;;8.69;58.89
9538;BME280;4807;48.024;11.726;2024-03-08T14:03:44;94235.25;;;8.62;59.40
9538;BME280;4807;48.024;11.726;2024-03-08T14:06:53;94222.59;;;8.64;59.58
9538;BME280;4807;48.024;11.726;2024-03-08T14:10:08;94223.03;;;8.48;58.00
9538;BME280;4807;48.024;11.726;2024-03-08T14:13:20;94224.66;;;8.49;58.04
9538;BME280;4807;48.024;11.726;2024-03-08T14:16:30;94212.81;;;8.64;58.64
9538;BME280;4807;48.024;11.726;2024-03-08T14:19:38;94211.53;;;8.87;60.00
9538;BME280;4807;48.024;11.726;2024-03-08T14:22:47;94210.53;;;8.74;58.89
9538;BME280;4807;48.024;11.726;2024-03-08T14:25:56;94197.25;;;8.81;58.42
9538;BME280;4807;48.024;11.726;2024-03-08T14:29:06;94196.81;;;8.84;58.76
9538;BME280;4807;48.024;11.726;2024-03-08T14:32:19;94191.31;;;8.86;58.76
9538;BME280;4807;48.024;11.726;2024-03-08T14:35:31;94188.28;;;8.69;58.19
9538;BME280;4807;48.024;11.726;2024-03-08T14:38:41;94191.16;;;8.67;58.98
9538;BME280;4807;48.024;11.726;2024-03-08T14:41:49;94189.91;;;8.70;59.23
9538;BME280;4807;48.024;11.726;2024-03-08T14:45:01;94188.09;;;8.70;58.31
9538;BME280;4807;48.024;11.726;2024-03-08T14:48:13;94185.25;;;8.65;59.49
9538;BME280;4807;48.024;11.726;2024-03-08T14:51:22;94179.94;;;8.52;58.57
9538;BME280;4807;48.024;11.726;2024-03-08T14:54:33;94177.13;;;8.47;58.75
9538;BME280;4807;48.024;11.726;2024-03-08T14:57:43;94174.84;;;8.57;58.93
9538;BME280;4807;48.024;11.726;2024-03-08T15:00:52;94175.66;;;8.64;59.55
9538;BME280;4807;48.024;11.726;2024-03-08T15:04:04;94174.63;;;8.65;59.29
9538;BME280;4807;48.024;11.726;2024-03-08T15:07:16;94173.59;;;8.60;59.51
9538;BME280;4807;48.024;11.726;2024-03-08T15:10:25;94170.38;;;8.51;59.91
9538;BME280;4807;48.024;11.726;2024-03-08T15:13:33;94164.66;;;8.54;61.09
9538;BME280;4807;48.024;11.726;2024-03-08T15:16:46;94154.03;;;8.67;60.40
9538;BME280;4807;48.024;11.726;2024-03-08T15:19:56;94159.56;;;8.59;60.66
9538;BME280;4807;48.024;11.726;2024-03-08T15:23:05;94147.94;;;8.47;59.76
9538;BME280;4807;48.024;11.726;2024-03-08T15:26:15;94152.41;;;8.47;59.51
9538;BME280;4807;48.024;11.726;2024-03-08T15:29:24;94143.06;;;8.37;59.69
9538;BME280;4807;48.024;11.726;2024-03-08T15:32:34;94141.41;;;8.30;60.10
9538;BME280;4807;48.024;11.726;2024-03-08T15:35:43;94136.53;;;8.27;60.83
9538;BME280;4807;48.024;11.726;2024-03-08T15:38:55;94139.56;;;8.24;60.23
9538;BME280;4807;48.024;11.726;2024-03-08T15:42:04;94153.44;;;8.13;60.29
9538;BME280;4807;48.024;11.726;2024-03-08T15:45:13;94153.25;;;8.14;61.49
9538;BME280;4807;48.024;11.726;2024-03-08T15:48:21;94142.66;;;8.08;60.39
9538;BME280;4807;48.024;11.726;2024-03-08T15:51:33;94142.25;;;7.97;61.20
9538;BME280;4807;48.024;11.726;2024-03-08T15:54:46;94145.09;;;7.89;61.11
9538;BME280;4807;48.024;11.726;2024-03-08T15:57:54;94143.47;;;7.88;62.10
9538;BME280;4807;48.024;11.726;2024-03-08T16:01:03;94138.78;;;7.90;62.48
9538;BME280;4807;48.024;11.726;2024-03-08T16:04:13;94136.97;;;7.84;61.96
9538;BME280;4807;48.024;11.726;2024-03-08T16:07:23;94139.38;;;7.79;62.13
9538;BME280;4807;48.024;11.726;2024-03-08T16:10:33;94140.19;;;7.73;63.15
9538;BME280;4807;48.024;11.726;2024-03-08T16:13:43;94138.38;;;7.67;62.44
9538;BME280;4807;48.024;11.726;2024-03-08T16:16:55;94132.88;;;7.62;63.34
9538;BME280;4807;48.024;11.726;2024-03-08T16:20:05;94125.31;;;7.59;62.57
9538;BME280;4807;48.024;11.726;2024-03-08T16:23:20;94116.75;;;7.44;64.18
9538;BME280;4807;48.024;11.726;2024-03-08T16:26:28;94118.59;;;7.43;63.87
9538;BME280;4807;48.024;11.726;2024-03-08T16:29:42;94121.19;;;7.23;65.33
9538;BME280;4807;48.024;11.726;2024-03-08T16:32:54;94120.16;;;7.24;65.00
9538;BME280;4807;48.024;11.726;2024-03-08T16:36:04;94118.53;;;7.17;65.34
9538;BME280;4807;48.024;11.726;2024-03-08T16:39:14;94116.88;;;7.09;65.90
9538;BME280;4807;48.024;11.726;2024-03-08T16:42:23;94109.56;;;7.11;65.96
9538;BME280;4807;48.024;11.726;2024-03-08T16:45:32;94107.91;;;6.97;66.51
9538;BME280;4807;48.024;11.726;2024-03-08T16:48:42;94108.50;;;6.99;66.40
9538;BME280;4807;48.024;11.726;2024-03-08T16:51:51;94103.53;;;6.76;67.64
9538;BME280;4807;48.024;11.726;2024-03-08T16:55:00;94096.97;;;6.66;67.98
9538;BME280;4807;48.024;11.726;2024-03-08T16:58:14;94095.88;;;6.40;69.53
9538;BME280;4807;48.024;11.726;2024-03-08T17:01:25;94093.00;;;6.42;69.21
9538;BME280;4807;48.024;11.726;2024-03-08T17:04:36;94090.13;;;6.30;69.86
9538;BME280;4807;48.024;11.726;2024-03-08T17:07:45;94090.84;;;6.18;70.61